Terminal Aerodrome Forecast
Issued by NWS

Home | Current Version | Previous Version | Text Only | Print | Product List | Glossary On
Versions: 1 2 3 4 5 6 7 8 9 10 11 12 13 14 15 16 17
000
FTUS42 TJSJ 220900 AAA
TAFNCM
TAF AMD
TNCM 220906Z 2209/2306 12015KT P6SM VCTS SCT020CB BKN040
      TEMPO 2209/2211 12018G30KT 4SM +TSRA BKN015CB
     FM221200 13015KT P6SM VCTS BKN020CB OVC050=

USA.gov is the U.S. government's official web portal to all federal, state and local government web resources and services.